Great Neck Estates, New York
Current Conditions -  °F | °C
As of 12:49 AM on Tuesday 27 Jan 2015 (Local Time) from KLGA Reporting Station
Moderate Snow Moderate Snow  
Wind Chill: 13°   Ceiling: 400
Heat Index: 25°   Visibility: 0.5mi
Dew Point: 21°   Wind: 14mph
Humidity: 86%   Direction: 20°NNE
Pressure: 29.68"   Gusts: NA
Location:  40.786°N, 73.7291°W
Report Text: KLGA 270549Z 02012KT 1/2SM R04/5000VP6000FT SN FZFG VV004 M04/M06 A2968 RMK AO2 P0008 $
Loading
Personal Weather Stations






























Interactive Weather Map New forecast layout! Learn more

10-Day Weather Forecast

Advertisements
Track Severe Weather on mobile